Time;durP1;ratioP1;P1;durP2;ratioP2;P2;SDS_P1;SDS_P2;PMS_P1;PMS_P2;Temp;Humidity;BMP_temperature;BMP_pressure;BME280_temperature;BME280_humidity;BME280_pressure;Samples;Min_cycle;Max_cycle;Signal;HPM_P1;HPM_P2
2022/06/25 00:01:27;;;;;;;;;;;;;;;25.40;52.59;100867.25;5017176;28;19929;-71
2022/06/25 00:03:52;;;;;;;;;;;;;;;25.23;53.10;100869.97;5017653;28;19921;-71
2022/06/25 00:06:18;;;;;;;;;;;;;;;24.95;53.71;100863.09;5017791;28;19917;-69
2022/06/25 00:08:47;;;;;;;;;;;;;;;24.92;54.41;100864.53;5023617;28;20000;-71
2022/06/25 00:12:31;;;;;;;;;;;;;;;25.28;52.85;100859.59;5016757;28;19921;-71
2022/06/25 00:13:58;;;;;;;;;;;;;;;25.46;52.82;100868.69;5018439;28;19921;-70
2022/06/25 00:16:24;;;;;;;;;;;;;;;25.40;52.52;100870.00;5015079;28;19929;-70
2022/06/25 00:18:49;;;;;;;;;;;;;;;25.18;52.54;100872.84;5006811;28;20358;-71
2022/06/25 00:21:14;;;;;;;;;;;;;;;25.28;52.15;100876.09;4997652;28;20370;-72
2022/06/25 00:23:39;;;;;;;;;;;;;;;25.19;53.29;100877.22;4994427;28;20377;-71
2022/06/25 00:26:05;;;;;;;;;;;;;;;25.34;52.58;100871.25;4997814;28;19948;-70
2022/06/25 00:28:30;;;;;;;;;;;;;;;25.31;52.54;100880.16;4992753;28;19922;-71
2022/06/25 00:30:55;;;;;;;;;;;;;;;25.13;52.82;100889.50;4998818;28;19976;-70
2022/06/25 00:33:20;;;;;;;;;;;;;;;25.10;52.69;100881.91;4996419;28;19922;-70
2022/06/25 00:35:46;;;;;;;;;;;;;;;25.08;52.93;100884.97;5003191;28;20008;-70
2022/06/25 00:38:11;;;;;;;;;;;;;;;25.20;52.55;100887.09;5000240;28;19972;-69
2022/06/25 00:40:36;;;;;;;;;;;;;;;24.84;53.36;100884.59;4998717;28;20299;-70
2022/06/25 00:43:02;;;;;;;;;;;;;;;25.09;52.82;100891.28;4998675;28;20270;-70
2022/06/25 00:45:27;;;;;;;;;;;;;;;24.92;53.55;100883.78;4999775;28;19918;-70
2022/06/25 00:47:52;;;;;;;;;;;;;;;24.84;53.13;100894.78;4997117;28;19952;-71
2022/06/25 00:50:17;;;;;;;;;;;;;;;24.94;53.11;100887.03;4998724;28;19957;-69
2022/06/25 00:52:47;;;;;;;;;;;;;;;24.72;53.88;100884.41;5011843;28;19922;-71
2022/06/25 00:55:12;;;;;;;;;;;;;;;24.89;52.48;100884.44;5010990;28;19933;-71
2022/06/25 00:57:38;;;;;;;;;;;;;;;24.86;53.13;100889.78;4998905;28;19924;-72
2022/06/25 01:00:06;;;;;;;;;;;;;;;24.93;52.88;100895.59;4993975;28;20020;-71
2022/06/25 01:02:31;;;;;;;;;;;;;;;24.80;52.57;100891.88;5018635;28;19922;-71
2022/06/25 01:04:56;;;;;;;;;;;;;;;24.86;52.99;100887.84;5004067;28;19921;-71
2022/06/25 01:07:21;;;;;;;;;;;;;;;24.90;52.77;100890.75;4999064;28;20309;-70
2022/06/25 01:09:47;;;;;;;;;;;;;;;24.82;53.13;100892.34;4995205;28;19924;-71
2022/06/25 01:12:12;;;;;;;;;;;;;;;24.84;52.85;100900.28;5006335;28;19917;-71
2022/06/25 01:14:38;;;;;;;;;;;;;;;24.82;52.84;100903.34;4995616;28;19925;-71
2022/06/25 01:17:07;;;;;;;;;;;;;;;24.64;53.24;100896.13;4994948;28;20356;-71
2022/06/25 01:19:32;;;;;;;;;;;;;;;24.59;53.67;100901.75;4995041;28;20393;-70
2022/06/25 01:21:58;;;;;;;;;;;;;;;24.69;52.98;100900.66;5004130;28;19997;-70
2022/06/25 01:24:23;;;;;;;;;;;;;;;24.72;53.03;100903.63;4993988;28;20004;-73
2022/06/25 01:26:48;;;;;;;;;;;;;;;24.65;53.46;100906.00;4998054;28;19922;-71
2022/06/25 01:29:13;;;;;;;;;;;;;;;24.45;54.14;100906.56;5004114;28;20373;-71
2022/06/25 01:31:39;;;;;;;;;;;;;;;24.45;54.28;100916.72;4998944;28;20453;-72
2022/06/25 01:34:04;;;;;;;;;;;;;;;24.67;53.19;100909.22;5002906;28;20297;-71
2022/06/25 01:36:29;;;;;;;;;;;;;;;24.68;53.33;100910.88;4993605;28;19918;-69
2022/06/25 01:38:55;;;;;;;;;;;;;;;24.55;54.06;100913.72;4998286;28;19922;-73
2022/06/25 01:41:20;;;;;;;;;;;;;;;24.70;53.88;100919.59;5015663;28;19921;-71
2022/06/25 01:43:46;;;;;;;;;;;;;;;24.78;53.43;100921.63;5003520;28;20317;-71
2022/06/25 01:46:11;;;;;;;;;;;;;;;24.68;53.72;100930.09;5002030;28;19937;-70
2022/06/25 01:48:36;;;;;;;;;;;;;;;24.37;54.82;100924.59;4998665;28;19918;-72
2022/06/25 01:51:02;;;;;;;;;;;;;;;24.39;54.78;100927.84;5003823;28;19914;-70
2022/06/25 01:53:29;;;;;;;;;;;;;;;24.05;55.62;100918.59;5001995;28;19921;-71
2022/06/25 01:55:54;;;;;;;;;;;;;;;24.44;54.76;100924.16;4994512;28;20013;-70
2022/06/25 01:58:19;;;;;;;;;;;;;;;24.53;54.31;100922.25;5003927;28;20341;-71
2022/06/25 02:00:45;;;;;;;;;;;;;;;24.39;54.80;100927.84;5010181;28;19922;-70
2022/06/25 02:03:10;;;;;;;;;;;;;;;24.66;54.09;100929.63;5003914;28;19926;-72
2022/06/25 02:08:19;;;;;;;;;;;;;;;24.74;53.83;100936.31;5004354;28;20404;-69
2022/06/25 02:10:46;;;;;;;;;;;;;;;24.35;54.92;100937.06;5004995;28;19929;-71
2022/06/25 02:13:11;;;;;;;;;;;;;;;24.66;53.93;100942.53;4996792;28;20197;-70
2022/06/25 02:15:36;;;;;;;;;;;;;;;24.33;54.86;100950.28;5001363;28;20317;-71
2022/06/25 02:18:02;;;;;;;;;;;;;;;24.52;54.50;100955.56;5002993;28;20340;-70
2022/06/25 02:20:27;;;;;;;;;;;;;;;24.11;55.70;100950.28;5005247;28;20416;-71
2022/06/25 02:22:53;;;;;;;;;;;;;;;24.41;54.14;100952.28;5002660;28;19922;-70
2022/06/25 02:25:18;;;;;;;;;;;;;;;24.52;53.89;100955.56;5001173;28;19928;-70
2022/06/25 02:27:43;;;;;;;;;;;;;;;24.45;54.05;100957.94;5003806;28;19918;-69
2022/06/25 02:30:09;;;;;;;;;;;;;;;24.48;54.24;100954.56;5007815;28;20000;-71
2022/06/25 02:32:34;;;;;;;;;;;;;;;24.40;54.68;100967.94;5004706;28;19965;-70
2022/06/25 02:35:00;;;;;;;;;;;;;;;24.30;54.84;100961.88;5001838;28;20409;-71
2022/06/25 02:37:25;;;;;;;;;;;;;;;24.40;54.30;100970.69;5006447;28;20230;-71
2022/06/25 02:39:50;;;;;;;;;;;;;;;24.01;55.48;100973.28;5006070;28;19922;-69
2022/06/25 02:42:15;;;;;;;;;;;;;;;24.23;55.07;100970.59;5016367;28;19929;-70
2022/06/25 02:44:41;;;;;;;;;;;;;;;24.38;54.34;100974.88;5006770;28;19933;-71
2022/06/25 02:47:06;;;;;;;;;;;;;;;24.29;54.52;100976.75;5001782;28;19944;-72
2022/06/25 02:49:31;;;;;;;;;;;;;;;24.50;54.10;100979.78;5004363;28;19928;-71
2022/06/25 02:51:56;;;;;;;;;;;;;;;24.21;54.70;100980.25;5000328;28;19921;-70
2022/06/25 02:54:22;;;;;;;;;;;;;;;24.26;54.92;100980.94;5005922;28;20373;-69
2022/06/25 02:59:31;;;;;;;;;;;;;;;24.47;53.97;100989.47;5000705;28;20043;-71
2022/06/25 03:01:56;;;;;;;;;;;;;;;24.32;54.21;100989.84;5006435;28;20008;-70
2022/06/25 03:04:22;;;;;;;;;;;;;;;24.48;53.85;100990.28;5002675;28;19930;-70
2022/06/25 03:06:48;;;;;;;;;;;;;;;24.31;54.77;100988.25;5007675;28;20292;-69
2022/06/25 03:09:13;;;;;;;;;;;;;;;24.31;54.14;101000.03;5003337;28;19932;-71
2022/06/25 03:11:38;;;;;;;;;;;;;;;24.42;53.70;100995.91;5000006;28;19922;-69
2022/06/25 03:14:03;;;;;;;;;;;;;;;24.37;54.32;100989.75;5000691;28;19921;-69
2022/06/25 03:16:29;;;;;;;;;;;;;;;24.05;55.29;100992.72;5005132;28;19921;-70
2022/06/25 03:18:54;;;;;;;;;;;;;;;24.06;55.11;101000.66;5000393;28;19928;-70
2022/06/25 03:21:19;;;;;;;;;;;;;;;24.30;53.99;100997.59;5002368;28;19926;-71
2022/06/25 03:23:45;;;;;;;;;;;;;;;24.16;54.64;101002.34;5002915;28;19929;-70
2022/06/25 03:26:10;;;;;;;;;;;;;;;24.29;54.02;101005.00;5012127;28;19948;-69
2022/06/25 03:28:36;;;;;;;;;;;;;;;24.26;54.34;101002.09;4994733;28;20397;-69
2022/06/25 03:31:02;;;;;;;;;;;;;;;24.41;54.25;101005.25;4999275;28;20448;-70
2022/06/25 03:33:28;;;;;;;;;;;;;;;24.36;54.25;101002.66;5000950;28;19961;-70
2022/06/25 03:35:53;;;;;;;;;;;;;;;24.15;54.99;101006.22;4999222;28;19928;-70
2022/06/25 03:38:18;;;;;;;;;;;;;;;24.08;54.66;101012.13;5005966;28;19921;-69
2022/06/25 03:40:43;;;;;;;;;;;;;;;24.21;54.14;101007.72;5010250;28;19938;-69
2022/06/25 03:43:08;;;;;;;;;;;;;;;23.80;55.93;101015.25;5002899;28;19921;-71
2022/06/25 03:45:34;;;;;;;;;;;;;;;23.96;55.79;101013.78;5002952;28;19922;-70
2022/06/25 03:47:59;;;;;;;;;;;;;;;24.21;54.34;101024.19;5001684;28;19953;-71
2022/06/25 03:50:24;;;;;;;;;;;;;;;24.12;54.71;101026.88;4998789;28;19921;-71
2022/06/25 03:52:50;;;;;;;;;;;;;;;24.09;54.67;101022.00;5004993;28;20395;-69
2022/06/25 03:55:15;;;;;;;;;;;;;;;24.10;54.90;101025.53;5001822;28;19961;-70
2022/06/25 03:57:41;;;;;;;;;;;;;;;24.10;55.02;101029.09;4999531;28;20004;-70
2022/06/25 04:00:07;;;;;;;;;;;;;;;24.14;54.71;101029.28;4995156;28;19922;-71
2022/06/25 04:02:32;;;;;;;;;;;;;;;23.79;56.18;101025.41;5006662;28;20349;-70
2022/06/25 04:04:59;;;;;;;;;;;;;;;23.83;56.06;101031.91;5007420;28;19921;-70
2022/06/25 04:07:24;;;;;;;;;;;;;;;23.98;55.12;101026.06;5016015;28;19957;-70
2022/06/25 04:09:49;;;;;;;;;;;;;;;23.64;56.50;101028.50;4999226;28;19969;-70
2022/06/25 04:12:14;;;;;;;;;;;;;;;23.99;55.24;101026.88;4993410;28;20012;-70
2022/06/25 04:14:39;;;;;;;;;;;;;;;24.07;55.20;101020.69;5000312;28;19929;-71
2022/06/25 04:17:05;;;;;;;;;;;;;;;24.08;54.51;101025.84;5006674;28;19941;-71
2022/06/25 04:19:30;;;;;;;;;;;;;;;24.37;54.13;101028.22;4997145;28;20482;-70
2022/06/25 04:21:55;;;;;;;;;;;;;;;23.94;55.25;101027.00;4997755;28;19965;-71
2022/06/25 04:24:21;;;;;;;;;;;;;;;24.34;54.39;101029.63;5000954;28;20016;-70
2022/06/25 04:26:46;;;;;;;;;;;;;;;23.54;56.90;101037.75;5003162;28;19983;-69
2022/06/25 04:29:11;;;;;;;;;;;;;;;23.93;55.73;101033.59;5017979;28;19925;-70
2022/06/25 04:31:38;;;;;;;;;;;;;;;24.15;54.83;101039.16;5000022;28;20643;-70
2022/06/25 04:34:04;;;;;;;;;;;;;;;24.11;54.53;101040.91;5001107;28;19972;-71
2022/06/25 04:36:29;;;;;;;;;;;;;;;24.30;54.14;101047.84;5005005;28;19968;-68
2022/06/25 04:38:55;;;;;;;;;;;;;;;23.62;56.30;101049.94;5005764;28;19944;-74
2022/06/25 04:41:20;;;;;;;;;;;;;;;24.03;55.38;101058.13;5005696;28;19926;-71
2022/06/25 04:43:45;;;;;;;;;;;;;;;24.31;54.36;101049.47;5004772;28;20494;-70
2022/06/25 04:46:11;;;;;;;;;;;;;;;24.37;54.05;101050.19;5000212;28;19929;-70
2022/06/25 04:48:36;;;;;;;;;;;;;;;24.53;53.43;101056.13;4999302;28;19917;-70
2022/06/25 04:51:01;;;;;;;;;;;;;;;24.48;53.96;101058.97;5005402;28;19918;-71
2022/06/25 04:53:27;;;;;;;;;;;;;;;24.27;54.78;101067.69;5000437;28;20151;-71
2022/06/25 04:55:52;;;;;;;;;;;;;;;24.10;55.26;101059.31;5005673;28;19933;-71
2022/06/25 04:58:17;;;;;;;;;;;;;;;24.28;54.75;101065.75;5001641;28;19928;-70
2022/06/25 05:00:43;;;;;;;;;;;;;;;23.91;55.73;101066.03;4999417;28;20333;-70
2022/06/25 05:03:08;;;;;;;;;;;;;;;23.72;57.11;101074.44;5001963;28;19921;-71
2022/06/25 05:05:34;;;;;;;;;;;;;;;24.22;55.17;101078.00;4998356;28;19929;-69
2022/06/25 05:07:59;;;;;;;;;;;;;;;24.14;55.38;101073.22;4998903;28;20371;-70
2022/06/25 05:10:25;;;;;;;;;;;;;;;24.06;55.32;101073.97;4999103;28;20282;-71
2022/06/25 05:15:35;;;;;;;;;;;;;;;24.31;54.82;101076.94;4998692;28;19940;-70
2022/06/25 05:18:00;;;;;;;;;;;;;;;24.43;54.43;101084.66;4993466;28;20017;-71
2022/06/25 05:20:25;;;;;;;;;;;;;;;24.42;54.35;101092.06;4998642;28;20457;-70
2022/06/25 05:22:51;;;;;;;;;;;;;;;23.65;57.15;101097.88;5004326;28;20305;-70
2022/06/25 05:25:16;;;;;;;;;;;;;;;24.36;55.06;101096.06;5005739;28;19922;-70
2022/06/25 05:27:41;;;;;;;;;;;;;;;24.55;54.25;101101.38;4999072;28;20008;-70
2022/06/25 05:30:07;;;;;;;;;;;;;;;24.38;54.57;101096.56;5003724;28;19913;-71
2022/06/25 05:32:33;;;;;;;;;;;;;;;24.82;53.26;101094.97;5001230;28;19926;-70
2022/06/25 05:34:58;;;;;;;;;;;;;;;24.96;52.77;101096.50;5012652;28;19922;-70
2022/06/25 05:37:24;;;;;;;;;;;;;;;24.78;53.32;101094.81;5017183;28;19928;-71
2022/06/25 05:39:49;;;;;;;;;;;;;;;24.68;54.03;101099.69;5016926;28;19929;-72
2022/06/25 05:42:14;;;;;;;;;;;;;;;25.26;51.86;101106.72;5017877;28;20035;-70
2022/06/25 05:44:39;;;;;;;;;;;;;;;24.63;52.91;101108.09;5013790;28;19929;-69
2022/06/25 05:47:05;;;;;;;;;;;;;;;24.07;54.57;101114.88;5018058;28;19979;-71
2022/06/25 05:49:30;;;;;;;;;;;;;;;24.48;54.40;101114.75;5012875;28;19971;-71
2022/06/25 05:51:55;;;;;;;;;;;;;;;24.90;52.92;101114.25;5014061;28;20394;-71
2022/06/25 05:54:21;;;;;;;;;;;;;;;24.93;52.67;101099.91;5015658;28;20358;-71
2022/06/25 05:56:46;;;;;;;;;;;;;;;25.23;51.72;101112.03;5012510;28;19921;-71
2022/06/25 05:59:12;;;;;;;;;;;;;;;25.68;50.06;101109.97;5015190;28;20052;-70
2022/06/25 06:01:37;;;;;;;;;;;;;;;25.35;51.47;101105.94;5013858;28;19925;-70
2022/06/25 06:04:02;;;;;;;;;;;;;;;25.65;50.27;101116.94;5017487;28;19928;-70
2022/06/25 06:06:28;;;;;;;;;;;;;;;26.01;49.96;101123.03;5014327;28;19922;-69
2022/06/25 06:08:53;;;;;;;;;;;;;;;26.00;49.55;101123.38;4997815;28;19928;-70
2022/06/25 06:11:18;;;;;;;;;;;;;;;26.38;48.69;101116.13;5000165;28;19921;-70
2022/06/25 06:13:43;;;;;;;;;;;;;;;25.62;49.75;101114.81;4992779;28;20446;-71
2022/06/25 06:16:08;;;;;;;;;;;;;;;25.27;50.63;101121.28;4999893;28;19957;-70
2022/06/25 06:18:34;;;;;;;;;;;;;;;25.93;49.12;101128.50;5004377;28;19924;-70
2022/06/25 06:20:59;;;;;;;;;;;;;;;26.40;48.00;101130.41;4997759;28;19922;-70
2022/06/25 06:23:24;;;;;;;;;;;;;;;26.44;47.61;101136.06;4999349;28;20013;-73
2022/06/25 06:25:50;;;;;;;;;;;;;;;26.51;48.04;101131.72;4998827;28;19926;-70
2022/06/25 06:28:16;;;;;;;;;;;;;;;26.85;47.13;101136.41;5001791;28;19932;-70
2022/06/25 06:30:41;;;;;;;;;;;;;;;25.43;49.21;101136.28;5003864;28;19918;-71
2022/06/25 06:33:06;;;;;;;;;;;;;;;26.47;47.08;101140.94;5002699;28;19941;-71
2022/06/25 06:35:31;;;;;;;;;;;;;;;25.98;47.72;101140.19;4999411;28;19944;-72
2022/06/25 06:37:57;;;;;;;;;;;;;;;26.49;46.37;101141.44;5002653;28;19967;-70
2022/06/25 06:40:22;;;;;;;;;;;;;;;26.18;47.58;101141.53;5001783;28;19925;-70
2022/06/25 06:42:47;;;;;;;;;;;;;;;26.19;47.83;101132.16;4998456;28;19917;-71
2022/06/25 06:45:13;;;;;;;;;;;;;;;25.78;48.53;101138.03;4999111;28;20409;-71
2022/06/25 06:47:38;;;;;;;;;;;;;;;26.13;47.88;101141.72;5006965;28;19921;-71
2022/06/25 06:50:03;;;;;;;;;;;;;;;26.05;47.12;101139.72;5014470;28;19932;-71
2022/06/25 06:52:29;;;;;;;;;;;;;;;26.22;46.84;101138.97;5018881;28;19929;-70
2022/06/25 06:54:54;;;;;;;;;;;;;;;25.88;46.92;101145.19;5019152;28;19922;-71
2022/06/25 06:57:19;;;;;;;;;;;;;;;26.10;46.43;101143.16;5021282;28;19928;-71
2022/06/25 06:59:45;;;;;;;;;;;;;;;25.90;46.34;101140.19;5020729;28;19921;-70
2022/06/25 07:02:10;;;;;;;;;;;;;;;26.26;46.18;101132.47;5037158;28;19925;-70
2022/06/25 07:04:35;;;;;;;;;;;;;;;26.76;45.01;101141.13;5021189;28;20000;-72
2022/06/25 07:07:01;;;;;;;;;;;;;;;27.00;44.74;101141.44;5019477;28;20321;-71
2022/06/25 07:09:26;;;;;;;;;;;;;;;26.55;45.53;101146.47;5015166;28;19918;-72
2022/06/25 07:11:51;;;;;;;;;;;;;;;26.13;46.23;101144.47;5003864;28;20390;-72
2022/06/25 07:14:16;;;;;;;;;;;;;;;26.04;45.61;101163.69;5010365;28;19975;-70
2022/06/25 07:16:42;;;;;;;;;;;;;;;26.94;44.04;101156.53;5000566;28;20378;-71
2022/06/25 07:19:07;;;;;;;;;;;;;;;27.20;43.92;101149.00;5003894;28;20380;-72
2022/06/25 07:21:32;;;;;;;;;;;;;;;27.13;42.68;101151.44;5014100;28;19969;-74
2022/06/25 07:23:58;;;;;;;;;;;;;;;26.95;43.98;101138.81;5006138;28;19913;-73
2022/06/25 07:26:24;;;;;;;;;;;;;;;27.64;41.85;101144.97;5008482;28;19921;-73
2022/06/25 07:28:51;;;;;;;;;;;;;;;27.25;43.11;101140.53;5001719;28;19921;-73
2022/06/25 07:31:16;;;;;;;;;;;;;;;27.15;43.26;101149.16;5015688;28;19975;-71
2022/06/25 07:33:41;;;;;;;;;;;;;;;27.33;42.96;101153.53;5014557;28;19981;-73
2022/06/25 07:36:07;;;;;;;;;;;;;;;26.53;43.62;101159.75;5014714;28;20022;-73
2022/06/25 07:38:33;;;;;;;;;;;;;;;26.91;43.04;101160.75;5020696;28;19972;-74
2022/06/25 07:40:58;;;;;;;;;;;;;;;27.16;43.53;101153.56;5019041;28;19978;-74
2022/06/25 07:43:25;;;;;;;;;;;;;;;27.51;42.19;101155.09;5022181;28;19929;-73
2022/06/25 07:45:50;;;;;;;;;;;;;;;27.19;42.70;101150.13;5013531;28;20056;-73
2022/06/25 07:48:15;;;;;;;;;;;;;;;26.90;43.31;101158.31;5013067;28;20015;-74
2022/06/25 07:53:25;;;;;;;;;;;;;;;27.60;42.61;101163.34;5017107;28;20285;-76
2022/06/25 07:55:50;;;;;;;;;;;;;;;27.94;41.13;101162.38;5019251;28;19921;-67
2022/06/25 07:58:16;;;;;;;;;;;;;;;27.11;43.48;101159.25;5021784;28;19957;-69
2022/06/25 08:00:41;;;;;;;;;;;;;;;27.41;42.86;101162.94;5019380;28;19932;-68
2022/06/25 08:03:06;;;;;;;;;;;;;;;27.84;42.69;101166.31;5018077;28;19913;-68
2022/06/25 08:05:33;;;;;;;;;;;;;;;27.27;42.52;101160.34;5017151;28;19929;-68
2022/06/25 08:07:59;;;;;;;;;;;;;;;27.62;41.51;101164.63;5017204;28;19921;-69
2022/06/25 08:10:24;;;;;;;;;;;;;;;28.16;41.02;101164.88;5016549;28;19921;-68
2022/06/25 08:12:49;;;;;;;;;;;;;;;28.95;40.05;101160.06;5016945;28;19952;-67
2022/06/25 08:15:16;;;;;;;;;;;;;;;28.80;39.77;101168.97;5018238;28;19928;-67
2022/06/25 08:17:42;;;;;;;;;;;;;;;28.59;39.43;101173.72;5017732;28;19930;-67
2022/06/25 08:20:07;;;;;;;;;;;;;;;28.64;39.73;101173.50;5016839;28;19925;-68
2022/06/25 08:22:32;;;;;;;;;;;;;;;28.37;40.18;101168.47;5018526;28;20078;-66
2022/06/25 08:24:57;;;;;;;;;;;;;;;28.51;39.73;101169.84;5018695;28;19933;-68
2022/06/25 08:27:23;;;;;;;;;;;;;;;29.20;39.18;101170.06;5016484;28;19917;-68
2022/06/25 08:29:49;;;;;;;;;;;;;;;29.56;38.68;101171.28;5016760;28;19921;-67
2022/06/25 08:32:14;;;;;;;;;;;;;;;28.59;39.69;101182.00;5016971;28;20296;-71
2022/06/25 08:34:39;;;;;;;;;;;;;;;28.71;38.97;101175.72;5020612;28;20075;-71
2022/06/25 08:37:05;;;;;;;;;;;;;;;28.47;39.76;101181.91;5019820;28;19921;-68
2022/06/25 08:39:31;;;;;;;;;;;;;;;28.99;39.25;101188.63;5017417;28;19918;-68
2022/06/25 08:41:59;;;;;;;;;;;;;;;28.13;40.10;101190.41;5015797;28;20300;-66
2022/06/25 08:44:25;;;;;;;;;;;;;;;28.83;39.65;101190.44;5017578;28;19925;-67
2022/06/25 08:46:50;;;;;;;;;;;;;;;28.40;39.77;101187.97;5017607;28;20270;-67
2022/06/25 08:49:16;;;;;;;;;;;;;;;27.56;41.25;101190.81;5016920;28;19925;-67
2022/06/25 08:51:43;;;;;;;;;;;;;;;28.33;39.96;101187.69;5016993;28;20031;-68
2022/06/25 08:54:10;;;;;;;;;;;;;;;27.74;41.13;101194.31;5021540;28;19923;-67
2022/06/25 08:56:35;;;;;;;;;;;;;;;28.45;40.04;101189.72;5017166;28;19929;-66
2022/06/25 08:59:02;;;;;;;;;;;;;;;28.58;40.55;101183.13;5017739;28;19929;-66
2022/06/25 09:01:27;;;;;;;;;;;;;;;27.50;41.49;101171.97;5017060;28;19936;-66
2022/06/25 09:03:53;;;;;;;;;;;;;;;27.75;41.56;101182.16;5017605;28;20059;-64
2022/06/25 09:06:20;;;;;;;;;;;;;;;28.13;40.10;101176.59;5016553;28;19917;-64
2022/06/25 09:09:05;;;;;;;;;;;;;;;29.15;38.94;101188.88;5018333;28;19921;-65
2022/06/25 09:11:30;;;;;;;;;;;;;;;28.57;39.85;101185.13;5033833;28;20005;-65
2022/06/25 09:13:58;;;;;;;;;;;;;;;28.95;39.04;101182.19;5011553;28;19961;-65
2022/06/25 09:16:24;;;;;;;;;;;;;;;29.02;40.33;101179.66;5017072;28;19975;-67
2022/06/25 09:18:49;;;;;;;;;;;;;;;29.75;37.91;101179.88;5016902;28;19933;-67
2022/06/25 09:21:14;;;;;;;;;;;;;;;29.62;37.53;101181.78;5014256;28;19922;-68
2022/06/25 09:23:58;;;;;;;;;;;;;;;29.36;37.38;101187.66;5014021;28;19951;-70
2022/06/25 09:26:24;;;;;;;;;;;;;;;29.85;36.81;101180.25;5013920;28;19929;-68
2022/06/25 09:28:49;;;;;;;;;;;;;;;30.45;36.29;101187.69;5013942;28;19921;-69
2022/06/25 09:31:34;;;;;;;;;;;;;;;29.51;38.34;101183.41;5012750;28;20004;-67
2022/06/25 09:34:03;;;;;;;;;;;;;;;29.90;37.12;101179.19;5018677;28;20395;-66
2022/06/25 09:36:29;;;;;;;;;;;;;;;30.89;35.21;101183.91;5009838;28;19972;-66
2022/06/25 09:38:54;;;;;;;;;;;;;;;30.12;36.06;101173.16;5012483;28;19921;-69
2022/06/25 09:41:22;;;;;;;;;;;;;;;29.29;37.49;101181.03;5012963;28;19925;-66
2022/06/25 09:43:47;;;;;;;;;;;;;;;30.34;35.89;101181.03;5010425;28;19936;-68
2022/06/25 09:46:13;;;;;;;;;;;;;;;31.13;35.13;101185.75;5011428;28;19921;-67
2022/06/25 09:48:40;;;;;;;;;;;;;;;30.59;35.80;101188.13;5010829;28;19964;-67
2022/06/25 09:51:09;;;;;;;;;;;;;;;29.97;36.90;101184.97;5014589;28;19913;-68
2022/06/25 09:53:43;;;;;;;;;;;;;;;30.10;36.46;101184.63;5015565;28;19948;-67
2022/06/25 09:56:09;;;;;;;;;;;;;;;29.09;37.70;101187.44;5008995;28;19981;-71
2022/06/25 09:58:34;;;;;;;;;;;;;;;29.49;37.05;101189.28;5010044;28;19993;-71
2022/06/25 10:01:02;;;;;;;;;;;;;;;29.21;38.31;101179.97;5010155;28;19968;-71
2022/06/25 10:03:29;;;;;;;;;;;;;;;28.89;38.61;101188.25;5007946;28;19972;-70
2022/06/25 10:05:54;;;;;;;;;;;;;;;29.42;37.68;101189.03;5012615;28;19922;-71
2022/06/25 10:08:20;;;;;;;;;;;;;;;29.70;37.87;101188.41;5008965;28;19928;-69
2022/06/25 10:10:48;;;;;;;;;;;;;;;30.03;36.36;101195.50;5013037;28;19932;-72
2022/06/25 10:13:14;;;;;;;;;;;;;;;29.17;38.04;101192.09;5018303;28;20000;-70
2022/06/25 10:15:39;;;;;;;;;;;;;;;28.70;38.83;101196.25;5015707;28;20047;-71
2022/06/25 10:18:06;;;;;;;;;;;;;;;29.03;39.37;101200.66;5014377;28;20321;-69
2022/06/25 10:20:32;;;;;;;;;;;;;;;28.53;41.62;101208.22;5016396;28;19993;-71
2022/06/25 10:22:58;;;;;;;;;;;;;;;28.21;44.19;101200.59;5013235;28;19925;-71
2022/06/25 10:25:24;;;;;;;;;;;;;;;27.07;47.33;101202.44;5021015;28;19998;-71
2022/06/25 10:27:50;;;;;;;;;;;;;;;27.64;47.05;101203.78;5008796;28;19928;-72
2022/06/25 10:30:35;;;;;;;;;;;;;;;27.83;47.47;101200.63;5014800;28;19914;-71
2022/06/25 10:33:01;;;;;;;;;;;;;;;28.11;46.85;101204.56;5016295;28;19925;-70
2022/06/25 10:35:26;;;;;;;;;;;;;;;27.39;48.97;101198.34;5015374;28;20259;-72
2022/06/25 10:38:03;;;;;;;;;;;;;;;28.35;47.04;101207.53;5016391;28;20433;-71
2022/06/25 10:40:33;;;;;;;;;;;;;;;28.45;44.83;101206.31;5032677;28;20451;-70
2022/06/25 10:43:04;;;;;;;;;;;;;;;28.63;45.07;101202.31;5014055;28;20358;-70
2022/06/25 10:45:32;;;;;;;;;;;;;;;29.09;44.30;101198.50;5014506;28;19917;-70
2022/06/25 10:47:58;;;;;;;;;;;;;;;29.52;43.75;101207.19;5015833;28;19921;-71
2022/06/25 10:50:23;;;;;;;;;;;;;;;29.77;43.27;101194.19;5015275;28;19925;-75
2022/06/25 10:53:03;;;;;;;;;;;;;;;30.35;42.17;101190.16;5015421;28;19929;-71
2022/06/25 10:55:29;;;;;;;;;;;;;;;30.19;39.45;101198.38;5015254;28;19922;-70
2022/06/25 10:58:09;;;;;;;;;;;;;;;30.20;39.91;101197.19;5016167;28;19936;-71
2022/06/25 11:00:48;;;;;;;;;;;;;;;29.98;40.30;101201.25;5015485;28;20390;-70
2022/06/25 11:03:14;;;;;;;;;;;;;;;30.42;39.38;101190.38;5013232;28;19917;-70
2022/06/25 11:05:43;;;;;;;;;;;;;;;30.34;39.28;101194.91;5015616;28;20480;-71
2022/06/25 11:08:09;;;;;;;;;;;;;;;29.27;40.55;101200.78;5014385;28;20386;-71
2022/06/25 11:10:38;;;;;;;;;;;;;;;28.40;42.36;101195.47;5009906;28;19971;-70
2022/06/25 11:13:04;;;;;;;;;;;;;;;28.39;42.04;101200.19;5020448;28;19929;-71
2022/06/25 11:15:39;;;;;;;;;;;;;;;28.58;42.35;101208.03;5013029;28;19918;-72
2022/06/25 11:18:08;;;;;;;;;;;;;;;28.63;42.97;101214.19;5011442;28;19952;-72
2022/06/25 11:20:36;;;;;;;;;;;;;;;29.15;40.76;101206.25;5013977;28;19925;-74
2022/06/25 11:23:05;;;;;;;;;;;;;;;28.82;41.75;101208.16;5011618;28;20390;-72
2022/06/25 11:28:49;;;;;;;;;;;;;;;28.76;40.93;101219.78;5010645;28;19961;-70
2022/06/25 11:31:18;;;;;;;;;;;;;;;28.62;41.29;101226.38;5012038;28;20580;-72
2022/06/25 11:33:44;;;;;;;;;;;;;;;30.14;38.50;101209.69;5017253;28;19918;-71
2022/06/25 11:36:13;;;;;;;;;;;;;;;29.80;38.93;101212.91;5013837;28;19913;-72
2022/06/25 11:38:42;;;;;;;;;;;;;;;29.13;39.27;101218.81;5010077;28;20222;-72
2022/06/25 11:41:17;;;;;;;;;;;;;;;30.26;36.92;101218.00;5015183;28;19935;-71
2022/06/25 11:43:43;;;;;;;;;;;;;;;30.38;36.28;101225.50;5009086;28;20313;-74
2022/06/25 11:46:08;;;;;;;;;;;;;;;30.32;36.99;101222.19;5013871;28;19928;-72
2022/06/25 11:48:33;;;;;;;;;;;;;;;31.55;34.96;101225.81;5015286;28;19921;-72
2022/06/25 11:50:59;;;;;;;;;;;;;;;30.41;34.88;101208.97;5016174;28;19917;-74
2022/06/25 11:53:25;;;;;;;;;;;;;;;29.85;36.26;101219.03;5013867;28;19921;-72
2022/06/25 11:55:56;;;;;;;;;;;;;;;29.61;35.81;101223.69;5013639;28;19994;-73
2022/06/25 11:58:22;;;;;;;;;;;;;;;29.47;36.63;101216.53;5014412;28;20508;-74
2022/06/25 12:00:47;;;;;;;;;;;;;;;29.77;36.26;101217.19;5017327;28;20029;-72
2022/06/25 12:03:12;;;;;;;;;;;;;;;30.38;35.11;101209.69;5015292;28;19921;-74
2022/06/25 12:05:37;;;;;;;;;;;;;;;29.63;37.77;101215.84;5015524;28;19968;-72
2022/06/25 12:08:03;;;;;;;;;;;;;;;29.47;37.39;101213.75;5013854;28;19925;-74
2022/06/25 12:10:29;;;;;;;;;;;;;;;30.66;35.72;101207.78;5012108;28;19921;-73
2022/06/25 12:12:54;;;;;;;;;;;;;;;31.56;35.18;101204.41;5034022;28;19929;-73
2022/06/25 12:15:27;;;;;;;;;;;;;;;31.09;34.72;101207.06;5025357;28;20006;-75
2022/06/25 12:18:02;;;;;;;;;;;;;;;30.84;35.78;101213.91;5034464;28;19925;-74
2022/06/25 12:20:27;;;;;;;;;;;;;;;31.04;35.08;101208.13;5029366;28;19933;-73
2022/06/25 12:22:52;;;;;;;;;;;;;;;30.31;36.10;101221.34;5033773;28;19932;-73
2022/06/25 12:25:31;;;;;;;;;;;;;;;29.84;36.53;101216.59;5031670;28;19937;-71
2022/06/25 12:27:57;;;;;;;;;;;;;;;29.96;36.65;101208.28;5031618;28;20467;-72
2022/06/25 12:30:26;;;;;;;;;;;;;;;30.07;36.49;101212.22;5032033;28;19917;-73
2022/06/25 12:32:57;;;;;;;;;;;;;;;30.61;35.86;101208.00;5025031;28;20386;-73
2022/06/25 12:35:27;;;;;;;;;;;;;;;30.73;35.26;101219.09;5020523;28;19921;-73
2022/06/25 12:38:01;;;;;;;;;;;;;;;30.13;36.52;101214.41;5018673;28;19921;-72
2022/06/25 12:40:27;;;;;;;;;;;;;;;30.60;36.96;101220.28;5014698;28;19937;-73
2022/06/25 12:42:53;;;;;;;;;;;;;;;31.49;34.81;101213.34;5019500;28;19921;-72
2022/06/25 12:45:19;;;;;;;;;;;;;;;32.20;33.69;101217.94;5015265;28;19917;-71